sensor_id;sensor_type;location;lat;lon;timestamp;temperature;humidity
54960;DHT22;40860;51.710;8.736;2022-11-20T00:01:14;-3.40;96.30
54960;DHT22;40860;51.710;8.736;2022-11-20T00:05:18;-3.50;96.40
54960;DHT22;40860;51.710;8.736;2022-11-20T00:09:23;-3.50;96.30
54960;DHT22;40860;51.710;8.736;2022-11-20T00:13:26;-3.50;96.60
54960;DHT22;40860;51.710;8.736;2022-11-20T00:17:29;-3.50;96.60
54960;DHT22;40860;51.710;8.736;2022-11-20T00:21:32;-3.50;96.50
54960;DHT22;40860;51.710;8.736;2022-11-20T00:25:36;-3.60;96.50
54960;DHT22;40860;51.710;8.736;2022-11-20T00:29:39;-3.60;96.50
54960;DHT22;40860;51.710;8.736;2022-11-20T00:33:43;-3.60;96.50
54960;DHT22;40860;51.710;8.736;2022-11-20T00:37:46;-3.70;96.70
54960;DHT22;40860;51.710;8.736;2022-11-20T00:41:50;-3.50;96.70
54960;DHT22;40860;51.710;8.736;2022-11-20T00:45:56;-3.50;96.60
54960;DHT22;40860;51.710;8.736;2022-11-20T00:49:59;-3.40;96.40
54960;DHT22;40860;51.710;8.736;2022-11-20T00:54:02;-3.50;96.40
54960;DHT22;40860;51.710;8.736;2022-11-20T00:58:06;-3.50;96.40
54960;DHT22;40860;51.710;8.736;2022-11-20T01:02:15;-3.50;96.30
54960;DHT22;40860;51.710;8.736;2022-11-20T01:06:19;-3.50;96.20
54960;DHT22;40860;51.710;8.736;2022-11-20T01:10:22;-3.50;96.20
54960;DHT22;40860;51.710;8.736;2022-11-20T01:14:27;-3.50;96.10
54960;DHT22;40860;51.710;8.736;2022-11-20T01:18:29;-3.50;96.00
54960;DHT22;40860;51.710;8.736;2022-11-20T01:22:32;-3.70;96.00
54960;DHT22;40860;51.710;8.736;2022-11-20T01:26:37;-3.80;96.20
54960;DHT22;40860;51.710;8.736;2022-11-20T01:30:42;-3.80;96.20
54960;DHT22;40860;51.710;8.736;2022-11-20T01:34:45;-3.80;96.20
54960;DHT22;40860;51.710;8.736;2022-11-20T01:38:49;-3.80;96.20
54960;DHT22;40860;51.710;8.736;2022-11-20T01:43:06;-3.90;96.20
54960;DHT22;40860;51.710;8.736;2022-11-20T01:47:34;-4.00;96.40
54960;DHT22;40860;51.710;8.736;2022-11-20T01:51:41;-4.00;96.50
54960;DHT22;40860;51.710;8.736;2022-11-20T01:55:47;-4.00;96.50
54960;DHT22;40860;51.710;8.736;2022-11-20T01:59:54;-4.00;96.60
54960;DHT22;40860;51.710;8.736;2022-11-20T02:03:59;-4.10;96.60
54960;DHT22;40860;51.710;8.736;2022-11-20T02:08:05;-4.10;96.80
54960;DHT22;40860;51.710;8.736;2022-11-20T02:12:08;-4.20;96.80
54960;DHT22;40860;51.710;8.736;2022-11-20T02:16:34;-4.20;96.80
54960;DHT22;40860;51.710;8.736;2022-11-20T02:20:40;-4.20;96.70
54960;DHT22;40860;51.710;8.736;2022-11-20T02:24:47;-4.20;96.70
54960;DHT22;40860;51.710;8.736;2022-11-20T02:28:51;-4.30;96.70
54960;DHT22;40860;51.710;8.736;2022-11-20T02:32:54;-4.20;97.10
54960;DHT22;40860;51.710;8.736;2022-11-20T02:36:58;-4.30;96.60
54960;DHT22;40860;51.710;8.736;2022-11-20T02:41:03;-4.30;96.70
54960;DHT22;40860;51.710;8.736;2022-11-20T02:45:07;-4.40;96.80
54960;DHT22;40860;51.710;8.736;2022-11-20T02:49:10;-4.40;97.00
54960;DHT22;40860;51.710;8.736;2022-11-20T02:53:13;-4.50;97.10
54960;DHT22;40860;51.710;8.736;2022-11-20T02:57:17;-4.40;97.20
54960;DHT22;40860;51.710;8.736;2022-11-20T03:01:20;-4.40;97.00
54960;DHT22;40860;51.710;8.736;2022-11-20T03:05:23;-4.40;97.10
54960;DHT22;40860;51.710;8.736;2022-11-20T03:09:26;-4.50;97.10
54960;DHT22;40860;51.710;8.736;2022-11-20T03:13:30;-4.50;97.20
54960;DHT22;40860;51.710;8.736;2022-11-20T03:17:33;-4.50;97.10
54960;DHT22;40860;51.710;8.736;2022-11-20T03:21:36;-4.50;97.10
54960;DHT22;40860;51.710;8.736;2022-11-20T03:25:39;-4.50;97.20
54960;DHT22;40860;51.710;8.736;2022-11-20T03:29:43;-4.50;97.20
54960;DHT22;40860;51.710;8.736;2022-11-20T03:33:46;-4.60;97.50
54960;DHT22;40860;51.710;8.736;2022-11-20T03:37:49;-4.60;97.60
54960;DHT22;40860;51.710;8.736;2022-11-20T03:41:52;-4.60;97.30
54960;DHT22;40860;51.710;8.736;2022-11-20T03:45:56;-4.60;97.30
54960;DHT22;40860;51.710;8.736;2022-11-20T03:49:59;-4.60;97.30
54960;DHT22;40860;51.710;8.736;2022-11-20T03:54:05;-4.60;97.20
54960;DHT22;40860;51.710;8.736;2022-11-20T03:58:08;-4.60;97.30
54960;DHT22;40860;51.710;8.736;2022-11-20T04:02:12;-4.60;97.30
54960;DHT22;40860;51.710;8.736;2022-11-20T04:06:17;-4.60;97.20
54960;DHT22;40860;51.710;8.736;2022-11-20T04:10:20;-4.60;97.20
54960;DHT22;40860;51.710;8.736;2022-11-20T04:14:23;-4.60;97.10
54960;DHT22;40860;51.710;8.736;2022-11-20T04:18:27;-4.70;97.20
54960;DHT22;40860;51.710;8.736;2022-11-20T04:22:30;-4.70;97.20
54960;DHT22;40860;51.710;8.736;2022-11-20T04:26:33;-4.70;97.30
54960;DHT22;40860;51.710;8.736;2022-11-20T04:30:36;-4.70;97.30
54960;DHT22;40860;51.710;8.736;2022-11-20T04:34:41;-4.70;97.20
54960;DHT22;40860;51.710;8.736;2022-11-20T04:38:44;-4.70;97.20
54960;DHT22;40860;51.710;8.736;2022-11-20T04:42:47;-4.80;97.40
54960;DHT22;40860;51.710;8.736;2022-11-20T04:46:50;-4.80;97.30
54960;DHT22;40860;51.710;8.736;2022-11-20T04:50:54;-4.80;97.20
54960;DHT22;40860;51.710;8.736;2022-11-20T04:54:57;-4.80;97.20
54960;DHT22;40860;51.710;8.736;2022-11-20T04:59:00;-4.70;97.30
54960;DHT22;40860;51.710;8.736;2022-11-20T05:03:04;-4.70;97.40
54960;DHT22;40860;51.710;8.736;2022-11-20T05:07:08;-4.70;97.40
54960;DHT22;40860;51.710;8.736;2022-11-20T05:11:13;-4.50;97.70
54960;DHT22;40860;51.710;8.736;2022-11-20T05:15:16;-4.40;97.80
54960;DHT22;40860;51.710;8.736;2022-11-20T05:19:19;-4.40;97.80
54960;DHT22;40860;51.710;8.736;2022-11-20T05:23:24;-4.30;97.90
54960;DHT22;40860;51.710;8.736;2022-11-20T05:27:28;-4.20;98.00
54960;DHT22;40860;51.710;8.736;2022-11-20T05:31:30;-4.10;98.00
54960;DHT22;40860;51.710;8.736;2022-11-20T05:35:33;-4.00;98.00
54960;DHT22;40860;51.710;8.736;2022-11-20T05:39:37;-3.90;98.10
54960;DHT22;40860;51.710;8.736;2022-11-20T05:43:42;-3.80;98.20
54960;DHT22;40860;51.710;8.736;2022-11-20T05:47:45;-3.80;98.20
54960;DHT22;40860;51.710;8.736;2022-11-20T05:51:48;-3.70;98.20
54960;DHT22;40860;51.710;8.736;2022-11-20T05:55:58;-3.60;98.20
54960;DHT22;40860;51.710;8.736;2022-11-20T06:00:01;-3.60;98.10
54960;DHT22;40860;51.710;8.736;2022-11-20T06:04:05;-3.50;98.30
54960;DHT22;40860;51.710;8.736;2022-11-20T06:08:07;-3.50;97.90
54960;DHT22;40860;51.710;8.736;2022-11-20T06:12:12;-3.50;97.80
54960;DHT22;40860;51.710;8.736;2022-11-20T06:16:17;-3.40;97.90
54960;DHT22;40860;51.710;8.736;2022-11-20T06:20:20;-3.50;98.00
54960;DHT22;40860;51.710;8.736;2022-11-20T06:24:23;-3.40;98.10
54960;DHT22;40860;51.710;8.736;2022-11-20T06:28:28;-3.40;98.10
54960;DHT22;40860;51.710;8.736;2022-11-20T06:32:32;-3.40;98.10
54960;DHT22;40860;51.710;8.736;2022-11-20T06:36:35;-3.40;98.10
54960;DHT22;40860;51.710;8.736;2022-11-20T06:40:40;-3.40;98.00
54960;DHT22;40860;51.710;8.736;2022-11-20T06:44:44;-3.40;98.10
54960;DHT22;40860;51.710;8.736;2022-11-20T06:48:48;-3.30;98.00
54960;DHT22;40860;51.710;8.736;2022-11-20T06:52:51;-3.30;98.00
54960;DHT22;40860;51.710;8.736;2022-11-20T06:56:54;-3.30;98.00
54960;DHT22;40860;51.710;8.736;2022-11-20T07:00:59;-3.30;98.10
54960;DHT22;40860;51.710;8.736;2022-11-20T07:05:02;-3.20;98.00
54960;DHT22;40860;51.710;8.736;2022-11-20T07:09:05;-3.10;98.20
54960;DHT22;40860;51.710;8.736;2022-11-20T07:13:22;-3.10;98.10
54960;DHT22;40860;51.710;8.736;2022-11-20T07:17:27;-3.10;98.20
54960;DHT22;40860;51.710;8.736;2022-11-20T07:21:29;-3.00;98.30
54960;DHT22;40860;51.710;8.736;2022-11-20T07:25:32;-3.00;98.40
54960;DHT22;40860;51.710;8.736;2022-11-20T07:29:35;-2.90;98.30
54960;DHT22;40860;51.710;8.736;2022-11-20T07:33:39;-2.70;98.20
54960;DHT22;40860;51.710;8.736;2022-11-20T07:37:42;-2.70;98.20
54960;DHT22;40860;51.710;8.736;2022-11-20T07:41:47;-2.60;98.40
54960;DHT22;40860;51.710;8.736;2022-11-20T07:45:50;-2.50;98.50
54960;DHT22;40860;51.710;8.736;2022-11-20T07:49:54;-2.30;98.60
54960;DHT22;40860;51.710;8.736;2022-11-20T07:53:57;-2.20;98.70
54960;DHT22;40860;51.710;8.736;2022-11-20T07:57:59;-2.10;98.60
54960;DHT22;40860;51.710;8.736;2022-11-20T08:02:02;-2.00;98.60
54960;DHT22;40860;51.710;8.736;2022-11-20T08:06:07;-1.90;98.70
54960;DHT22;40860;51.710;8.736;2022-11-20T08:10:12;-1.90;98.60
54960;DHT22;40860;51.710;8.736;2022-11-20T08:14:15;-1.80;98.70
54960;DHT22;40860;51.710;8.736;2022-11-20T08:18:18;-1.70;98.80
54960;DHT22;40860;51.710;8.736;2022-11-20T08:22:34;-1.60;98.90
54960;DHT22;40860;51.710;8.736;2022-11-20T08:26:38;-1.50;99.00
54960;DHT22;40860;51.710;8.736;2022-11-20T08:30:41;-1.50;99.10
54960;DHT22;40860;51.710;8.736;2022-11-20T08:34:44;-1.30;99.30
54960;DHT22;40860;51.710;8.736;2022-11-20T08:38:50;-1.20;99.20
54960;DHT22;40860;51.710;8.736;2022-11-20T08:42:53;-1.20;99.30
54960;DHT22;40860;51.710;8.736;2022-11-20T08:46:56;-1.10;99.40
54960;DHT22;40860;51.710;8.736;2022-11-20T08:50:59;-1.10;99.40
54960;DHT22;40860;51.710;8.736;2022-11-20T08:55:05;-1.00;99.40
54960;DHT22;40860;51.710;8.736;2022-11-20T08:59:08;-0.90;99.50
54960;DHT22;40860;51.710;8.736;2022-11-20T09:03:27;-0.90;99.40
54960;DHT22;40860;51.710;8.736;2022-11-20T09:07:33;-0.70;99.40
54960;DHT22;40860;51.710;8.736;2022-11-20T09:11:38;-0.60;99.30
54960;DHT22;40860;51.710;8.736;2022-11-20T09:15:40;-0.40;99.40
54960;DHT22;40860;51.710;8.736;2022-11-20T09:19:43;-0.10;99.40
54960;DHT22;40860;51.710;8.736;2022-11-20T09:23:47;0.30;99.10
54960;DHT22;40860;51.710;8.736;2022-11-20T09:27:56;0.80;98.60
54960;DHT22;40860;51.710;8.736;2022-11-20T09:31:59;1.20;97.70
54960;DHT22;40860;51.710;8.736;2022-11-20T09:36:02;1.20;97.10
54960;DHT22;40860;51.710;8.736;2022-11-20T09:40:06;1.30;97.20
54960;DHT22;40860;51.710;8.736;2022-11-20T09:44:20;1.50;96.70
54960;DHT22;40860;51.710;8.736;2022-11-20T09:48:36;1.70;96.70
54960;DHT22;40860;51.710;8.736;2022-11-20T09:52:48;1.90;96.40
54960;DHT22;40860;51.710;8.736;2022-11-20T09:56:56;2.00;96.20
54960;DHT22;40860;51.710;8.736;2022-11-20T10:01:08;1.90;95.80
54960;DHT22;40860;51.710;8.736;2022-11-20T10:05:18;2.00;95.90
54960;DHT22;40860;51.710;8.736;2022-11-20T10:09:24;2.00;95.60
54960;DHT22;40860;51.710;8.736;2022-11-20T10:13:38;2.00;95.70
54960;DHT22;40860;51.710;8.736;2022-11-20T10:18:11;2.10;95.80
54960;DHT22;40860;51.710;8.736;2022-11-20T10:22:29;2.30;95.70
54960;DHT22;40860;51.710;8.736;2022-11-20T10:26:43;2.40;95.60
54960;DHT22;40860;51.710;8.736;2022-11-20T10:30:53;2.50;95.50
54960;DHT22;40860;51.710;8.736;2022-11-20T10:35:03;2.50;95.60
54960;DHT22;40860;51.710;8.736;2022-11-20T10:39:16;2.50;95.20
54960;DHT22;40860;51.710;8.736;2022-11-20T10:43:29;2.50;95.30
54960;DHT22;40860;51.710;8.736;2022-11-20T10:47:34;2.60;95.20
54960;DHT22;40860;51.710;8.736;2022-11-20T10:51:47;2.60;95.10
54960;DHT22;40860;51.710;8.736;2022-11-20T10:55:56;2.60;95.10
54960;DHT22;40860;51.710;8.736;2022-11-20T11:00:05;2.70;95.20
54960;DHT22;40860;51.710;8.736;2022-11-20T11:04:23;2.80;95.10
54960;DHT22;40860;51.710;8.736;2022-11-20T11:08:37;2.80;94.90
54960;DHT22;40860;51.710;8.736;2022-11-20T11:12:43;2.80;94.60
54960;DHT22;40860;51.710;8.736;2022-11-20T11:16:51;2.90;94.60
54960;DHT22;40860;51.710;8.736;2022-11-20T11:20:56;2.90;94.60
54960;DHT22;40860;51.710;8.736;2022-11-20T11:25:01;3.00;94.50
54960;DHT22;40860;51.710;8.736;2022-11-20T11:29:04;3.10;94.40
54960;DHT22;40860;51.710;8.736;2022-11-20T11:33:10;3.10;94.00
54960;DHT22;40860;51.710;8.736;2022-11-20T11:37:17;3.30;94.20
54960;DHT22;40860;51.710;8.736;2022-11-20T11:41:24;3.50;93.90
54960;DHT22;40860;51.710;8.736;2022-11-20T11:45:28;3.60;93.30
54960;DHT22;40860;51.710;8.736;2022-11-20T11:49:31;3.70;93.40
54960;DHT22;40860;51.710;8.736;2022-11-20T11:53:37;3.80;93.20
54960;DHT22;40860;51.710;8.736;2022-11-20T11:57:49;3.90;92.90
54960;DHT22;40860;51.710;8.736;2022-11-20T12:01:56;3.90;92.60
54960;DHT22;40860;51.710;8.736;2022-11-20T12:06:05;3.90;92.50
54960;DHT22;40860;51.710;8.736;2022-11-20T12:10:20;3.90;92.30
54960;DHT22;40860;51.710;8.736;2022-11-20T12:14:31;3.80;91.90
54960;DHT22;40860;51.710;8.736;2022-11-20T12:18:35;3.80;92.10
54960;DHT22;40860;51.710;8.736;2022-11-20T12:22:43;3.80;91.90
54960;DHT22;40860;51.710;8.736;2022-11-20T12:27:02;3.80;92.10
54960;DHT22;40860;51.710;8.736;2022-11-20T12:31:34;3.70;92.10
54960;DHT22;40860;51.710;8.736;2022-11-20T12:35:57;3.70;92.20
54960;DHT22;40860;51.710;8.736;2022-11-20T12:40:20;3.70;92.30
54960;DHT22;40860;51.710;8.736;2022-11-20T12:44:44;3.60;92.00
54960;DHT22;40860;51.710;8.736;2022-11-20T12:49:22;3.70;92.20
54960;DHT22;40860;51.710;8.736;2022-11-20T12:53:36;3.70;92.00
54960;DHT22;40860;51.710;8.736;2022-11-20T12:57:48;3.60;91.90
54960;DHT22;40860;51.710;8.736;2022-11-20T13:01:57;3.50;91.80
54960;DHT22;40860;51.710;8.736;2022-11-20T13:06:10;3.40;91.70
54960;DHT22;40860;51.710;8.736;2022-11-20T13:10:18;3.30;91.10
54960;DHT22;40860;51.710;8.736;2022-11-20T13:14:32;3.30;90.80
54960;DHT22;40860;51.710;8.736;2022-11-20T13:18:39;3.30;90.70
54960;DHT22;40860;51.710;8.736;2022-11-20T13:22:47;3.30;90.20
54960;DHT22;40860;51.710;8.736;2022-11-20T13:27:00;3.50;90.00
54960;DHT22;40860;51.710;8.736;2022-11-20T13:31:03;3.70;89.70
54960;DHT22;40860;51.710;8.736;2022-11-20T13:35:09;3.70;89.10
54960;DHT22;40860;51.710;8.736;2022-11-20T13:39:24;3.80;89.50
54960;DHT22;40860;51.710;8.736;2022-11-20T13:43:39;4.00;89.10
54960;DHT22;40860;51.710;8.736;2022-11-20T13:47:48;4.10;88.10
54960;DHT22;40860;51.710;8.736;2022-11-20T13:51:57;4.10;87.50
54960;DHT22;40860;51.710;8.736;2022-11-20T13:56:11;4.00;87.20
54960;DHT22;40860;51.710;8.736;2022-11-20T14:00:21;3.80;87.20
54960;DHT22;40860;51.710;8.736;2022-11-20T14:04:27;3.60;87.30
54960;DHT22;40860;51.710;8.736;2022-11-20T14:08:36;3.50;88.40
54960;DHT22;40860;51.710;8.736;2022-11-20T14:12:42;3.50;88.50
54960;DHT22;40860;51.710;8.736;2022-11-20T14:16:45;3.40;88.60
54960;DHT22;40860;51.710;8.736;2022-11-20T14:20:48;3.30;88.30
54960;DHT22;40860;51.710;8.736;2022-11-20T14:25:03;3.30;89.20
54960;DHT22;40860;51.710;8.736;2022-11-20T14:29:12;3.20;88.60
54960;DHT22;40860;51.710;8.736;2022-11-20T14:33:16;3.10;88.60
54960;DHT22;40860;51.710;8.736;2022-11-20T14:37:24;3.10;89.20
54960;DHT22;40860;51.710;8.736;2022-11-20T14:41:27;3.00;90.00
54960;DHT22;40860;51.710;8.736;2022-11-20T14:45:32;3.00;90.00
54960;DHT22;40860;51.710;8.736;2022-11-20T14:49:35;2.90;90.10
54960;DHT22;40860;51.710;8.736;2022-11-20T14:53:39;2.90;90.20
54960;DHT22;40860;51.710;8.736;2022-11-20T14:57:41;2.80;90.50
54960;DHT22;40860;51.710;8.736;2022-11-20T15:01:55;2.70;90.30
54960;DHT22;40860;51.710;8.736;2022-11-20T15:05:59;2.70;90.70
54960;DHT22;40860;51.710;8.736;2022-11-20T15:10:05;2.70;90.80
54960;DHT22;40860;51.710;8.736;2022-11-20T15:14:09;2.60;90.80
54960;DHT22;40860;51.710;8.736;2022-11-20T15:18:15;2.60;90.80
54960;DHT22;40860;51.710;8.736;2022-11-20T15:22:18;2.60;90.80
54960;DHT22;40860;51.710;8.736;2022-11-20T15:26:24;2.60;90.70
54960;DHT22;40860;51.710;8.736;2022-11-20T15:30:27;2.70;90.90
54960;DHT22;40860;51.710;8.736;2022-11-20T15:34:31;2.60;90.60
54960;DHT22;40860;51.710;8.736;2022-11-20T15:38:34;2.60;90.80
54960;DHT22;40860;51.710;8.736;2022-11-20T15:42:37;2.60;90.90
54960;DHT22;40860;51.710;8.736;2022-11-20T15:47:00;2.60;90.80
54960;DHT22;40860;51.710;8.736;2022-11-20T15:51:11;2.60;90.60
54960;DHT22;40860;51.710;8.736;2022-11-20T15:55:15;2.50;90.50
54960;DHT22;40860;51.710;8.736;2022-11-20T15:59:18;2.50;90.70
54960;DHT22;40860;51.710;8.736;2022-11-20T16:03:22;2.50;90.90
54960;DHT22;40860;51.710;8.736;2022-11-20T16:07:26;2.50;91.00
54960;DHT22;40860;51.710;8.736;2022-11-20T16:11:29;2.50;91.30
54960;DHT22;40860;51.710;8.736;2022-11-20T16:15:32;2.50;91.00
54960;DHT22;40860;51.710;8.736;2022-11-20T16:19:47;2.50;91.00
54960;DHT22;40860;51.710;8.736;2022-11-20T16:23:51;2.50;91.00
54960;DHT22;40860;51.710;8.736;2022-11-20T16:27:54;2.50;90.90
54960;DHT22;40860;51.710;8.736;2022-11-20T16:31:57;2.50;90.80
54960;DHT22;40860;51.710;8.736;2022-11-20T16:36:07;2.50;90.90
54960;DHT22;40860;51.710;8.736;2022-11-20T16:40:11;2.50;90.80
54960;DHT22;40860;51.710;8.736;2022-11-20T16:44:14;2.40;91.00
54960;DHT22;40860;51.710;8.736;2022-11-20T16:48:17;2.40;91.20
54960;DHT22;40860;51.710;8.736;2022-11-20T16:52:20;2.40;91.30
54960;DHT22;40860;51.710;8.736;2022-11-20T16:56:26;2.40;91.60
54960;DHT22;40860;51.710;8.736;2022-11-20T17:00:29;2.40;91.80
54960;DHT22;40860;51.710;8.736;2022-11-20T17:04:32;2.40;92.10
54960;DHT22;40860;51.710;8.736;2022-11-20T17:08:34;2.40;92.30
54960;DHT22;40860;51.710;8.736;2022-11-20T17:12:39;2.40;92.50
54960;DHT22;40860;51.710;8.736;2022-11-20T17:16:45;2.40;92.70
54960;DHT22;40860;51.710;8.736;2022-11-20T17:20:50;2.40;92.90
54960;DHT22;40860;51.710;8.736;2022-11-20T17:24:53;2.40;93.20
54960;DHT22;40860;51.710;8.736;2022-11-20T17:28:59;2.40;93.50
54960;DHT22;40860;51.710;8.736;2022-11-20T17:33:02;2.30;94.00
54960;DHT22;40860;51.710;8.736;2022-11-20T17:37:06;2.30;94.60
54960;DHT22;40860;51.710;8.736;2022-11-20T17:41:10;2.20;95.40
54960;DHT22;40860;51.710;8.736;2022-11-20T17:45:15;2.20;95.90
54960;DHT22;40860;51.710;8.736;2022-11-20T17:49:17;2.10;96.30
54960;DHT22;40860;51.710;8.736;2022-11-20T17:53:24;2.10;96.80
54960;DHT22;40860;51.710;8.736;2022-11-20T17:57:27;2.10;97.10
54960;DHT22;40860;51.710;8.736;2022-11-20T18:01:46;2.00;97.60
54960;DHT22;40860;51.710;8.736;2022-11-20T18:05:49;2.10;98.00
54960;DHT22;40860;51.710;8.736;2022-11-20T18:09:51;2.10;98.20
54960;DHT22;40860;51.710;8.736;2022-11-20T18:13:57;2.10;98.40
54960;DHT22;40860;51.710;8.736;2022-11-20T18:18:18;2.10;98.70
54960;DHT22;40860;51.710;8.736;2022-11-20T18:22:21;2.10;99.00
54960;DHT22;40860;51.710;8.736;2022-11-20T18:26:25;2.10;99.10
54960;DHT22;40860;51.710;8.736;2022-11-20T18:30:28;2.20;99.10
54960;DHT22;40860;51.710;8.736;2022-11-20T18:34:32;2.20;99.20
54960;DHT22;40860;51.710;8.736;2022-11-20T18:38:35;2.20;99.30
54960;DHT22;40860;51.710;8.736;2022-11-20T18:42:41;2.20;99.30
54960;DHT22;40860;51.710;8.736;2022-11-20T18:47:02;2.20;99.30
54960;DHT22;40860;51.710;8.736;2022-11-20T18:51:15;2.20;99.40
54960;DHT22;40860;51.710;8.736;2022-11-20T18:55:18;2.20;99.50
54960;DHT22;40860;51.710;8.736;2022-11-20T18:59:24;2.30;99.50
54960;DHT22;40860;51.710;8.736;2022-11-20T19:03:28;2.30;99.80
54960;DHT22;40860;51.710;8.736;2022-11-20T19:07:32;2.30;99.80
54960;DHT22;40860;51.710;8.736;2022-11-20T19:11:36;2.30;99.80
54960;DHT22;40860;51.710;8.736;2022-11-20T19:15:39;2.30;99.90
54960;DHT22;40860;51.710;8.736;2022-11-20T19:19:42;2.30;99.90
54960;DHT22;40860;51.710;8.736;2022-11-20T19:23:48;2.30;99.90
54960;DHT22;40860;51.710;8.736;2022-11-20T19:27:51;2.20;99.90
54960;DHT22;40860;51.710;8.736;2022-11-20T19:31:54;2.30;99.90
54960;DHT22;40860;51.710;8.736;2022-11-20T19:36:07;2.20;99.90
54960;DHT22;40860;51.710;8.736;2022-11-20T19:40:11;2.30;99.90
54960;DHT22;40860;51.710;8.736;2022-11-20T19:44:15;2.30;99.90
54960;DHT22;40860;51.710;8.736;2022-11-20T19:48:18;2.30;99.90
54960;DHT22;40860;51.710;8.736;2022-11-20T19:52:21;2.30;99.90
54960;DHT22;40860;51.710;8.736;2022-11-20T19:56:27;2.30;99.90
54960;DHT22;40860;51.710;8.736;2022-11-20T20:00:30;2.30;99.90
54960;DHT22;40860;51.710;8.736;2022-11-20T20:04:33;2.30;99.90
54960;DHT22;40860;51.710;8.736;2022-11-20T20:08:37;2.30;99.90
54960;DHT22;40860;51.710;8.736;2022-11-20T20:12:41;2.30;99.90
54960;DHT22;40860;51.710;8.736;2022-11-20T20:16:44;2.30;99.90
54960;DHT22;40860;51.710;8.736;2022-11-20T20:20:47;2.30;99.90
54960;DHT22;40860;51.710;8.736;2022-11-20T20:24:49;2.30;99.90
54960;DHT22;40860;51.710;8.736;2022-11-20T20:28:54;2.30;99.90
54960;DHT22;40860;51.710;8.736;2022-11-20T20:32:57;2.30;99.90
54960;DHT22;40860;51.710;8.736;2022-11-20T20:37:00;2.30;99.90
54960;DHT22;40860;51.710;8.736;2022-11-20T20:41:04;2.30;99.90
54960;DHT22;40860;51.710;8.736;2022-11-20T20:45:09;2.30;99.90
54960;DHT22;40860;51.710;8.736;2022-11-20T20:49:12;2.30;99.90
54960;DHT22;40860;51.710;8.736;2022-11-20T20:53:15;2.30;99.90
54960;DHT22;40860;51.710;8.736;2022-11-20T20:57:18;2.40;99.90
54960;DHT22;40860;51.710;8.736;2022-11-20T21:01:22;2.40;99.90
54960;DHT22;40860;51.710;8.736;2022-11-20T21:05:29;2.40;99.90
54960;DHT22;40860;51.710;8.736;2022-11-20T21:09:32;2.30;99.90
54960;DHT22;40860;51.710;8.736;2022-11-20T21:13:36;2.30;99.90
54960;DHT22;40860;51.710;8.736;2022-11-20T21:17:41;2.30;99.90
54960;DHT22;40860;51.710;8.736;2022-11-20T21:21:44;2.30;99.90
54960;DHT22;40860;51.710;8.736;2022-11-20T21:26:06;2.30;99.90
54960;DHT22;40860;51.710;8.736;2022-11-20T21:30:09;2.30;99.90
54960;DHT22;40860;51.710;8.736;2022-11-20T21:34:15;2.30;99.90
54960;DHT22;40860;51.710;8.736;2022-11-20T21:38:18;2.30;99.90
54960;DHT22;40860;51.710;8.736;2022-11-20T21:42:21;2.30;99.90
54960;DHT22;40860;51.710;8.736;2022-11-20T21:46:23;2.20;99.90
54960;DHT22;40860;51.710;8.736;2022-11-20T21:50:28;2.10;99.90
54960;DHT22;40860;51.710;8.736;2022-11-20T21:54:31;2.10;99.90
54960;DHT22;40860;51.710;8.736;2022-11-20T21:58:37;2.00;99.90
54960;DHT22;40860;51.710;8.736;2022-11-20T22:02:40;2.00;99.90
54960;DHT22;40860;51.710;8.736;2022-11-20T22:06:44;2.00;99.90
54960;DHT22;40860;51.710;8.736;2022-11-20T22:10:53;2.00;99.90
54960;DHT22;40860;51.710;8.736;2022-11-20T22:14:56;2.00;99.90
54960;DHT22;40860;51.710;8.736;2022-11-20T22:18:59;2.00;99.90
54960;DHT22;40860;51.710;8.736;2022-11-20T22:23:05;2.00;99.90
54960;DHT22;40860;51.710;8.736;2022-11-20T22:27:09;2.00;99.90
54960;DHT22;40860;51.710;8.736;2022-11-20T22:31:12;2.00;99.90
54960;DHT22;40860;51.710;8.736;2022-11-20T22:35:15;2.00;99.90
54960;DHT22;40860;51.710;8.736;2022-11-20T22:39:19;2.00;99.90
54960;DHT22;40860;51.710;8.736;2022-11-20T22:43:23;2.00;99.90
54960;DHT22;40860;51.710;8.736;2022-11-20T22:47:26;2.00;99.90
54960;DHT22;40860;51.710;8.736;2022-11-20T22:51:30;2.00;99.90
54960;DHT22;40860;51.710;8.736;2022-11-20T22:55:35;2.10;99.90
54960;DHT22;40860;51.710;8.736;2022-11-20T22:59:38;2.10;99.90
54960;DHT22;40860;51.710;8.736;2022-11-20T23:03:44;2.10;99.90
54960;DHT22;40860;51.710;8.736;2022-11-20T23:07:47;2.10;99.90
54960;DHT22;40860;51.710;8.736;2022-11-20T23:11:53;2.10;99.90
54960;DHT22;40860;51.710;8.736;2022-11-20T23:16:01;2.10;99.90
54960;DHT22;40860;51.710;8.736;2022-11-20T23:20:06;2.10;99.90
54960;DHT22;40860;51.710;8.736;2022-11-20T23:24:10;2.10;99.90
54960;DHT22;40860;51.710;8.736;2022-11-20T23:28:14;2.00;99.90
54960;DHT22;40860;51.710;8.736;2022-11-20T23:32:17;2.10;99.90
54960;DHT22;40860;51.710;8.736;2022-11-20T23:36:20;2.10;99.90
54960;DHT22;40860;51.710;8.736;2022-11-20T23:40:23;2.10;99.90
54960;DHT22;40860;51.710;8.736;2022-11-20T23:44:28;2.10;99.90
54960;DHT22;40860;51.710;8.736;2022-11-20T23:48:33;2.10;99.90
54960;DHT22;40860;51.710;8.736;2022-11-20T23:52:36;2.00;99.90
54960;DHT22;40860;51.710;8.736;2022-11-20T23:56:38;2.00;99.90
